sensor_id;sensor_type;location;lat;lon;timestamp;P1;durP1;ratioP1;P2;durP2;ratioP2
63005;SDS011;53704;52.532;6.426;2023-06-10T00:02:06;7.20;;;4.63;;
63005;SDS011;53704;52.532;6.426;2023-06-10T00:04:32;8.55;;;5.60;;
63005;SDS011;53704;52.532;6.426;2023-06-10T00:06:58;9.88;;;5.30;;
63005;SDS011;53704;52.532;6.426;2023-06-10T00:09:23;8.35;;;4.60;;
63005;SDS011;53704;52.532;6.426;2023-06-10T00:11:49;12.80;;;5.10;;
63005;SDS011;53704;52.532;6.426;2023-06-10T00:14:14;16.65;;;5.70;;
63005;SDS011;53704;52.532;6.426;2023-06-10T00:16:40;10.73;;;4.45;;
63005;SDS011;53704;52.532;6.426;2023-06-10T00:19:05;15.63;;;5.25;;
63005;SDS011;53704;52.532;6.426;2023-06-10T00:21:31;22.17;;;5.22;;
63005;SDS011;53704;52.532;6.426;2023-06-10T00:24:08;13.95;;;4.35;;
63005;SDS011;53704;52.532;6.426;2023-06-10T00:26:39;6.32;;;5.70;;
63005;SDS011;53704;52.532;6.426;2023-06-10T00:29:05;17.35;;;5.25;;
63005;SDS011;53704;52.532;6.426;2023-06-10T00:31:31;8.77;;;4.35;;
63005;SDS011;53704;52.532;6.426;2023-06-10T00:33:56;8.10;;;4.53;;
63005;SDS011;53704;52.532;6.426;2023-06-10T00:36:23;15.32;;;5.22;;
63005;SDS011;53704;52.532;6.426;2023-06-10T00:38:49;8.23;;;4.93;;
63005;SDS011;53704;52.532;6.426;2023-06-10T00:41:15;10.63;;;4.68;;
63005;SDS011;53704;52.532;6.426;2023-06-10T00:43:40;8.98;;;5.20;;
63005;SDS011;53704;52.532;6.426;2023-06-10T00:46:05;10.38;;;4.65;;
63005;SDS011;53704;52.532;6.426;2023-06-10T00:48:31;6.80;;;4.97;;
63005;SDS011;53704;52.532;6.426;2023-06-10T00:50:57;8.32;;;5.43;;
63005;SDS011;53704;52.532;6.426;2023-06-10T00:53:25;7.25;;;5.05;;
63005;SDS011;53704;52.532;6.426;2023-06-10T00:55:51;10.48;;;6.03;;
63005;SDS011;53704;52.532;6.426;2023-06-10T00:58:17;8.68;;;5.22;;
63005;SDS011;53704;52.532;6.426;2023-06-10T01:00:42;7.40;;;4.93;;
63005;SDS011;53704;52.532;6.426;2023-06-10T01:03:10;6.03;;;5.20;;
63005;SDS011;53704;52.532;6.426;2023-06-10T01:05:37;9.38;;;4.78;;
63005;SDS011;53704;52.532;6.426;2023-06-10T01:08:06;5.05;;;4.60;;
63005;SDS011;53704;52.532;6.426;2023-06-10T01:10:38;11.57;;;5.60;;
63005;SDS011;53704;52.532;6.426;2023-06-10T01:13:11;8.57;;;5.00;;
63005;SDS011;53704;52.532;6.426;2023-06-10T01:15:39;9.60;;;5.40;;
63005;SDS011;53704;52.532;6.426;2023-06-10T01:18:05;9.05;;;4.90;;
63005;SDS011;53704;52.532;6.426;2023-06-10T01:20:37;11.32;;;4.80;;
63005;SDS011;53704;52.532;6.426;2023-06-10T01:23:05;8.02;;;4.53;;
63005;SDS011;53704;52.532;6.426;2023-06-10T01:25:31;9.27;;;5.15;;
63005;SDS011;53704;52.532;6.426;2023-06-10T01:30:49;7.68;;;5.28;;
63005;SDS011;53704;52.532;6.426;2023-06-10T01:33:25;15.93;;;5.18;;
63005;SDS011;53704;52.532;6.426;2023-06-10T01:35:55;10.40;;;5.38;;
63005;SDS011;53704;52.532;6.426;2023-06-10T01:38:22;8.55;;;5.15;;
63005;SDS011;53704;52.532;6.426;2023-06-10T01:40:50;9.65;;;5.03;;
63005;SDS011;53704;52.532;6.426;2023-06-10T01:43:19;9.77;;;5.72;;
63005;SDS011;53704;52.532;6.426;2023-06-10T01:45:45;7.03;;;4.45;;
63005;SDS011;53704;52.532;6.426;2023-06-10T01:48:10;6.22;;;5.45;;
63005;SDS011;53704;52.532;6.426;2023-06-10T01:50:36;17.60;;;5.50;;
63005;SDS011;53704;52.532;6.426;2023-06-10T01:53:02;6.03;;;5.30;;
63005;SDS011;53704;52.532;6.426;2023-06-10T01:55:28;6.00;;;5.47;;
63005;SDS011;53704;52.532;6.426;2023-06-10T01:57:53;11.18;;;5.60;;
63005;SDS011;53704;52.532;6.426;2023-06-10T02:00:19;7.43;;;4.70;;
63005;SDS011;53704;52.532;6.426;2023-06-10T02:02:44;15.93;;;5.40;;
63005;SDS011;53704;52.532;6.426;2023-06-10T02:05:10;8.07;;;5.20;;
63005;SDS011;53704;52.532;6.426;2023-06-10T02:07:35;13.68;;;5.57;;
63005;SDS011;53704;52.532;6.426;2023-06-10T02:10:01;12.00;;;5.10;;
63005;SDS011;53704;52.532;6.426;2023-06-10T02:12:26;8.15;;;5.07;;
63005;SDS011;53704;52.532;6.426;2023-06-10T02:14:52;7.53;;;5.85;;
63005;SDS011;53704;52.532;6.426;2023-06-10T02:17:17;10.95;;;5.60;;
63005;SDS011;53704;52.532;6.426;2023-06-10T02:19:43;7.93;;;5.57;;
63005;SDS011;53704;52.532;6.426;2023-06-10T02:22:09;7.15;;;5.28;;
63005;SDS011;53704;52.532;6.426;2023-06-10T02:24:37;12.20;;;5.90;;
63005;SDS011;53704;52.532;6.426;2023-06-10T02:27:03;6.32;;;5.43;;
63005;SDS011;53704;52.532;6.426;2023-06-10T02:29:33;10.55;;;5.75;;
63005;SDS011;53704;52.532;6.426;2023-06-10T02:31:59;16.63;;;5.82;;
63005;SDS011;53704;52.532;6.426;2023-06-10T02:34:24;12.65;;;6.00;;
63005;SDS011;53704;52.532;6.426;2023-06-10T02:36:49;12.70;;;5.30;;
63005;SDS011;53704;52.532;6.426;2023-06-10T02:39:16;10.05;;;5.90;;
63005;SDS011;53704;52.532;6.426;2023-06-10T02:41:41;10.88;;;5.53;;
63005;SDS011;53704;52.532;6.426;2023-06-10T02:44:07;8.57;;;5.68;;
63005;SDS011;53704;52.532;6.426;2023-06-10T02:46:32;10.52;;;6.90;;
63005;SDS011;53704;52.532;6.426;2023-06-10T02:48:58;9.65;;;5.70;;
63005;SDS011;53704;52.532;6.426;2023-06-10T02:51:23;11.00;;;5.15;;
63005;SDS011;53704;52.532;6.426;2023-06-10T02:53:48;7.80;;;5.63;;
63005;SDS011;53704;52.532;6.426;2023-06-10T02:56:16;9.30;;;5.80;;
63005;SDS011;53704;52.532;6.426;2023-06-10T02:58:42;7.25;;;5.47;;
63005;SDS011;53704;52.532;6.426;2023-06-10T03:01:07;9.63;;;6.15;;
63005;SDS011;53704;52.532;6.426;2023-06-10T03:03:35;13.52;;;6.13;;
63005;SDS011;53704;52.532;6.426;2023-06-10T03:06:02;10.27;;;5.90;;
63005;SDS011;53704;52.532;6.426;2023-06-10T03:08:28;18.45;;;6.18;;
63005;SDS011;53704;52.532;6.426;2023-06-10T03:10:53;7.85;;;5.60;;
63005;SDS011;53704;52.532;6.426;2023-06-10T03:13:19;12.15;;;6.03;;
63005;SDS011;53704;52.532;6.426;2023-06-10T03:15:44;8.80;;;5.68;;
63005;SDS011;53704;52.532;6.426;2023-06-10T03:18:11;9.32;;;5.95;;
63005;SDS011;53704;52.532;6.426;2023-06-10T03:20:36;12.43;;;6.22;;
63005;SDS011;53704;52.532;6.426;2023-06-10T03:23:03;11.02;;;6.20;;
63005;SDS011;53704;52.532;6.426;2023-06-10T03:25:31;9.93;;;6.20;;
63005;SDS011;53704;52.532;6.426;2023-06-10T03:27:56;19.27;;;5.97;;
63005;SDS011;53704;52.532;6.426;2023-06-10T03:30:22;13.35;;;6.53;;
63005;SDS011;53704;52.532;6.426;2023-06-10T03:32:47;13.15;;;6.10;;
63005;SDS011;53704;52.532;6.426;2023-06-10T03:35:14;13.40;;;5.45;;
63005;SDS011;53704;52.532;6.426;2023-06-10T03:37:40;8.50;;;5.95;;
63005;SDS011;53704;52.532;6.426;2023-06-10T03:40:06;11.05;;;6.03;;
63005;SDS011;53704;52.532;6.426;2023-06-10T03:42:33;6.65;;;5.47;;
63005;SDS011;53704;52.532;6.426;2023-06-10T03:44:59;8.15;;;5.97;;
63005;SDS011;53704;52.532;6.426;2023-06-10T03:47:25;8.20;;;5.75;;
63005;SDS011;53704;52.532;6.426;2023-06-10T03:49:50;8.07;;;6.50;;
63005;SDS011;53704;52.532;6.426;2023-06-10T03:54:42;10.65;;;5.82;;
63005;SDS011;53704;52.532;6.426;2023-06-10T03:57:08;12.43;;;6.00;;
63005;SDS011;53704;52.532;6.426;2023-06-10T03:59:33;11.63;;;6.38;;
63005;SDS011;53704;52.532;6.426;2023-06-10T04:01:58;12.57;;;5.82;;
63005;SDS011;53704;52.532;6.426;2023-06-10T04:04:25;14.32;;;6.20;;
63005;SDS011;53704;52.532;6.426;2023-06-10T04:06:50;10.73;;;6.25;;
63005;SDS011;53704;52.532;6.426;2023-06-10T04:09:16;18.27;;;6.20;;
63005;SDS011;53704;52.532;6.426;2023-06-10T04:11:42;16.15;;;6.20;;
63005;SDS011;53704;52.532;6.426;2023-06-10T04:14:07;9.68;;;6.05;;
63005;SDS011;53704;52.532;6.426;2023-06-10T04:16:33;8.27;;;5.47;;
63005;SDS011;53704;52.532;6.426;2023-06-10T04:19:00;15.73;;;6.38;;
63005;SDS011;53704;52.532;6.426;2023-06-10T04:21:25;11.38;;;6.05;;
63005;SDS011;53704;52.532;6.426;2023-06-10T04:23:51;7.78;;;5.68;;
63005;SDS011;53704;52.532;6.426;2023-06-10T04:26:17;12.50;;;5.65;;
63005;SDS011;53704;52.532;6.426;2023-06-10T04:28:43;7.72;;;5.93;;
63005;SDS011;53704;52.532;6.426;2023-06-10T04:31:09;6.82;;;6.15;;
63005;SDS011;53704;52.532;6.426;2023-06-10T04:33:35;14.73;;;6.57;;
63005;SDS011;53704;52.532;6.426;2023-06-10T04:36:00;13.88;;;5.93;;
63005;SDS011;53704;52.532;6.426;2023-06-10T04:38:26;7.07;;;6.28;;
63005;SDS011;53704;52.532;6.426;2023-06-10T04:40:52;10.48;;;6.25;;
63005;SDS011;53704;52.532;6.426;2023-06-10T04:43:17;11.45;;;6.25;;
63005;SDS011;53704;52.532;6.426;2023-06-10T04:45:43;9.60;;;5.88;;
63005;SDS011;53704;52.532;6.426;2023-06-10T04:48:10;13.27;;;5.72;;
63005;SDS011;53704;52.532;6.426;2023-06-10T04:50:36;13.32;;;5.97;;
63005;SDS011;53704;52.532;6.426;2023-06-10T04:53:02;13.18;;;6.38;;
63005;SDS011;53704;52.532;6.426;2023-06-10T04:55:27;16.25;;;6.55;;
63005;SDS011;53704;52.532;6.426;2023-06-10T04:57:53;9.63;;;6.10;;
63005;SDS011;53704;52.532;6.426;2023-06-10T05:00:19;15.43;;;6.53;;
63005;SDS011;53704;52.532;6.426;2023-06-10T05:02:44;17.60;;;6.80;;
63005;SDS011;53704;52.532;6.426;2023-06-10T05:05:10;10.98;;;5.72;;
63005;SDS011;53704;52.532;6.426;2023-06-10T05:07:36;12.57;;;7.55;;
63005;SDS011;53704;52.532;6.426;2023-06-10T05:10:01;11.63;;;6.60;;
63005;SDS011;53704;52.532;6.426;2023-06-10T05:12:28;8.25;;;5.53;;
63005;SDS011;53704;52.532;6.426;2023-06-10T05:14:53;14.23;;;5.70;;
63005;SDS011;53704;52.532;6.426;2023-06-10T05:17:19;11.02;;;6.72;;
63005;SDS011;53704;52.532;6.426;2023-06-10T05:19:44;12.15;;;6.35;;
63005;SDS011;53704;52.532;6.426;2023-06-10T05:22:09;8.00;;;5.90;;
63005;SDS011;53704;52.532;6.426;2023-06-10T05:24:35;10.70;;;6.15;;
63005;SDS011;53704;52.532;6.426;2023-06-10T05:27:01;16.73;;;6.10;;
63005;SDS011;53704;52.532;6.426;2023-06-10T05:29:27;11.20;;;6.25;;
63005;SDS011;53704;52.532;6.426;2023-06-10T05:31:53;8.52;;;6.57;;
63005;SDS011;53704;52.532;6.426;2023-06-10T05:34:18;10.00;;;6.15;;
63005;SDS011;53704;52.532;6.426;2023-06-10T05:36:44;15.07;;;6.55;;
63005;SDS011;53704;52.532;6.426;2023-06-10T05:39:09;12.82;;;6.53;;
63005;SDS011;53704;52.532;6.426;2023-06-10T05:41:35;9.77;;;5.80;;
63005;SDS011;53704;52.532;6.426;2023-06-10T05:44:01;7.88;;;6.53;;
63005;SDS011;53704;52.532;6.426;2023-06-10T05:46:26;11.30;;;6.50;;
63005;SDS011;53704;52.532;6.426;2023-06-10T05:48:52;9.32;;;5.90;;
63005;SDS011;53704;52.532;6.426;2023-06-10T05:51:17;13.27;;;6.93;;
63005;SDS011;53704;52.532;6.426;2023-06-10T05:53:43;15.18;;;6.80;;
63005;SDS011;53704;52.532;6.426;2023-06-10T05:56:08;13.77;;;6.38;;
63005;SDS011;53704;52.532;6.426;2023-06-10T05:58:34;9.70;;;6.32;;
63005;SDS011;53704;52.532;6.426;2023-06-10T06:00:59;12.02;;;6.07;;
63005;SDS011;53704;52.532;6.426;2023-06-10T06:03:25;9.85;;;5.80;;
63005;SDS011;53704;52.532;6.426;2023-06-10T06:05:50;10.15;;;5.95;;
63005;SDS011;53704;52.532;6.426;2023-06-10T06:08:16;10.57;;;6.18;;
63005;SDS011;53704;52.532;6.426;2023-06-10T06:10:44;16.75;;;6.28;;
63005;SDS011;53704;52.532;6.426;2023-06-10T06:13:10;11.57;;;6.32;;
63005;SDS011;53704;52.532;6.426;2023-06-10T06:15:35;16.00;;;7.38;;
63005;SDS011;53704;52.532;6.426;2023-06-10T06:18:01;12.77;;;6.65;;
63005;SDS011;53704;52.532;6.426;2023-06-10T06:20:26;8.82;;;6.57;;
63005;SDS011;53704;52.532;6.426;2023-06-10T06:22:52;13.20;;;7.00;;
63005;SDS011;53704;52.532;6.426;2023-06-10T06:25:17;14.25;;;6.18;;
63005;SDS011;53704;52.532;6.426;2023-06-10T06:27:43;11.75;;;6.03;;
63005;SDS011;53704;52.532;6.426;2023-06-10T06:30:08;10.77;;;6.53;;
63005;SDS011;53704;52.532;6.426;2023-06-10T06:32:34;18.55;;;6.68;;
63005;SDS011;53704;52.532;6.426;2023-06-10T06:34:59;15.18;;;5.63;;
63005;SDS011;53704;52.532;6.426;2023-06-10T06:37:25;15.10;;;6.47;;
63005;SDS011;53704;52.532;6.426;2023-06-10T06:39:51;14.27;;;6.72;;
63005;SDS011;53704;52.532;6.426;2023-06-10T06:42:17;10.20;;;5.88;;
63005;SDS011;53704;52.532;6.426;2023-06-10T06:44:43;10.18;;;5.82;;
63005;SDS011;53704;52.532;6.426;2023-06-10T06:47:09;6.82;;;5.75;;
63005;SDS011;53704;52.532;6.426;2023-06-10T06:49:35;7.20;;;5.15;;
63005;SDS011;53704;52.532;6.426;2023-06-10T06:52:00;11.32;;;6.32;;
63005;SDS011;53704;52.532;6.426;2023-06-10T06:54:26;14.45;;;6.28;;
63005;SDS011;53704;52.532;6.426;2023-06-10T06:56:52;9.43;;;5.32;;
63005;SDS011;53704;52.532;6.426;2023-06-10T06:59:17;5.60;;;4.85;;
63005;SDS011;53704;52.532;6.426;2023-06-10T07:01:44;8.23;;;5.68;;
63005;SDS011;53704;52.532;6.426;2023-06-10T07:04:10;11.07;;;6.20;;
63005;SDS011;53704;52.532;6.426;2023-06-10T07:06:35;14.40;;;5.50;;
63005;SDS011;53704;52.532;6.426;2023-06-10T07:09:01;10.18;;;5.15;;
63005;SDS011;53704;52.532;6.426;2023-06-10T07:11:26;13.68;;;5.75;;
63005;SDS011;53704;52.532;6.426;2023-06-10T07:13:52;11.18;;;6.07;;
63005;SDS011;53704;52.532;6.426;2023-06-10T07:16:17;9.25;;;5.43;;
63005;SDS011;53704;52.532;6.426;2023-06-10T07:18:45;18.75;;;5.55;;
63005;SDS011;53704;52.532;6.426;2023-06-10T07:21:11;15.38;;;6.22;;
63005;SDS011;53704;52.532;6.426;2023-06-10T07:23:36;15.48;;;5.63;;
63005;SDS011;53704;52.532;6.426;2023-06-10T07:26:02;10.65;;;5.32;;
63005;SDS011;53704;52.532;6.426;2023-06-10T07:28:27;6.13;;;4.93;;
63005;SDS011;53704;52.532;6.426;2023-06-10T07:30:53;10.38;;;5.18;;
63005;SDS011;53704;52.532;6.426;2023-06-10T07:33:18;16.63;;;4.82;;
63005;SDS011;53704;52.532;6.426;2023-06-10T07:35:44;9.10;;;5.32;;
63005;SDS011;53704;52.532;6.426;2023-06-10T07:38:09;11.82;;;4.70;;
63005;SDS011;53704;52.532;6.426;2023-06-10T07:40:35;8.82;;;5.68;;
63005;SDS011;53704;52.532;6.426;2023-06-10T07:43:00;11.05;;;5.53;;
63005;SDS011;53704;52.532;6.426;2023-06-10T07:45:25;9.52;;;4.97;;
63005;SDS011;53704;52.532;6.426;2023-06-10T07:47:51;16.25;;;4.90;;
63005;SDS011;53704;52.532;6.426;2023-06-10T07:50:16;16.15;;;5.00;;
63005;SDS011;53704;52.532;6.426;2023-06-10T07:52:42;7.53;;;5.13;;
63005;SDS011;53704;52.532;6.426;2023-06-10T07:55:07;15.65;;;5.22;;
63005;SDS011;53704;52.532;6.426;2023-06-10T07:57:33;8.65;;;4.95;;
63005;SDS011;53704;52.532;6.426;2023-06-10T08:00:02;5.95;;;4.60;;
63005;SDS011;53704;52.532;6.426;2023-06-10T08:02:29;11.48;;;4.40;;
63005;SDS011;53704;52.532;6.426;2023-06-10T08:04:55;7.22;;;4.40;;
63005;SDS011;53704;52.532;6.426;2023-06-10T08:07:20;24.13;;;5.05;;
63005;SDS011;53704;52.532;6.426;2023-06-10T08:09:47;15.35;;;5.65;;
63005;SDS011;53704;52.532;6.426;2023-06-10T08:12:12;12.85;;;5.15;;
63005;SDS011;53704;52.532;6.426;2023-06-10T08:14:39;10.85;;;4.60;;
63005;SDS011;53704;52.532;6.426;2023-06-10T08:17:04;17.42;;;4.93;;
63005;SDS011;53704;52.532;6.426;2023-06-10T08:19:31;10.93;;;4.10;;
63005;SDS011;53704;52.532;6.426;2023-06-10T08:21:56;10.15;;;4.78;;
63005;SDS011;53704;52.532;6.426;2023-06-10T08:24:22;8.30;;;4.47;;
63005;SDS011;53704;52.532;6.426;2023-06-10T08:26:47;5.30;;;4.25;;
63005;SDS011;53704;52.532;6.426;2023-06-10T08:29:13;7.63;;;4.00;;
63005;SDS011;53704;52.532;6.426;2023-06-10T08:31:42;11.50;;;4.80;;
63005;SDS011;53704;52.532;6.426;2023-06-10T08:34:09;11.15;;;4.68;;
63005;SDS011;53704;52.532;6.426;2023-06-10T08:36:34;9.68;;;4.55;;
63005;SDS011;53704;52.532;6.426;2023-06-10T08:39:00;9.10;;;4.50;;
63005;SDS011;53704;52.532;6.426;2023-06-10T08:41:28;16.65;;;4.80;;
63005;SDS011;53704;52.532;6.426;2023-06-10T08:44:09;6.38;;;4.50;;
63005;SDS011;53704;52.532;6.426;2023-06-10T08:46:44;7.63;;;4.32;;
63005;SDS011;53704;52.532;6.426;2023-06-10T08:49:10;17.17;;;5.53;;
63005;SDS011;53704;52.532;6.426;2023-06-10T08:51:48;9.52;;;4.47;;
63005;SDS011;53704;52.532;6.426;2023-06-10T08:54:17;15.65;;;5.32;;
63005;SDS011;53704;52.532;6.426;2023-06-10T08:56:48;9.85;;;5.13;;
63005;SDS011;53704;52.532;6.426;2023-06-10T08:59:18;13.77;;;3.90;;
63005;SDS011;53704;52.532;6.426;2023-06-10T09:01:45;20.98;;;4.32;;
63005;SDS011;53704;52.532;6.426;2023-06-10T09:04:11;9.40;;;4.40;;
63005;SDS011;53704;52.532;6.426;2023-06-10T09:06:37;9.70;;;4.22;;
63005;SDS011;53704;52.532;6.426;2023-06-10T09:09:05;13.07;;;4.50;;
63005;SDS011;53704;52.532;6.426;2023-06-10T09:11:31;7.68;;;4.13;;
63005;SDS011;53704;52.532;6.426;2023-06-10T09:13:57;10.90;;;4.43;;
63005;SDS011;53704;52.532;6.426;2023-06-10T09:16:23;8.27;;;4.00;;
63005;SDS011;53704;52.532;6.426;2023-06-10T09:18:52;9.13;;;4.38;;
63005;SDS011;53704;52.532;6.426;2023-06-10T09:21:23;12.55;;;4.25;;
63005;SDS011;53704;52.532;6.426;2023-06-10T09:23:49;10.70;;;4.45;;
63005;SDS011;53704;52.532;6.426;2023-06-10T09:26:15;12.32;;;4.53;;
63005;SDS011;53704;52.532;6.426;2023-06-10T09:28:50;5.95;;;4.38;;
63005;SDS011;53704;52.532;6.426;2023-06-10T09:31:15;6.60;;;3.92;;
63005;SDS011;53704;52.532;6.426;2023-06-10T09:33:44;12.38;;;4.72;;
63005;SDS011;53704;52.532;6.426;2023-06-10T09:36:10;10.70;;;4.35;;
63005;SDS011;53704;52.532;6.426;2023-06-10T09:38:36;5.90;;;4.50;;
63005;SDS011;53704;52.532;6.426;2023-06-10T09:41:03;11.18;;;4.47;;
63005;SDS011;53704;52.532;6.426;2023-06-10T09:43:42;7.05;;;4.03;;
63005;SDS011;53704;52.532;6.426;2023-06-10T09:46:18;17.15;;;4.57;;
63005;SDS011;53704;52.532;6.426;2023-06-10T09:48:45;9.98;;;3.80;;
63005;SDS011;53704;52.532;6.426;2023-06-10T09:51:15;13.38;;;4.13;;
63005;SDS011;53704;52.532;6.426;2023-06-10T09:53:47;4.40;;;3.97;;
63005;SDS011;53704;52.532;6.426;2023-06-10T09:56:15;15.18;;;4.45;;
63005;SDS011;53704;52.532;6.426;2023-06-10T09:58:40;6.32;;;4.38;;
63005;SDS011;53704;52.532;6.426;2023-06-10T10:01:09;8.40;;;4.15;;
63005;SDS011;53704;52.532;6.426;2023-06-10T10:03:53;7.43;;;4.30;;
63005;SDS011;53704;52.532;6.426;2023-06-10T10:06:20;13.38;;;4.18;;
63005;SDS011;53704;52.532;6.426;2023-06-10T10:08:46;10.00;;;3.92;;
63005;SDS011;53704;52.532;6.426;2023-06-10T10:11:14;9.48;;;4.72;;
63005;SDS011;53704;52.532;6.426;2023-06-10T10:13:42;6.05;;;3.85;;
63005;SDS011;53704;52.532;6.426;2023-06-10T10:16:11;6.88;;;4.10;;
63005;SDS011;53704;52.532;6.426;2023-06-10T10:18:41;11.15;;;4.40;;
63005;SDS011;53704;52.532;6.426;2023-06-10T10:21:14;8.40;;;4.20;;
63005;SDS011;53704;52.532;6.426;2023-06-10T10:23:46;17.67;;;4.32;;
63005;SDS011;53704;52.532;6.426;2023-06-10T10:26:20;8.70;;;4.05;;
63005;SDS011;53704;52.532;6.426;2023-06-10T10:28:50;7.60;;;3.90;;
63005;SDS011;53704;52.532;6.426;2023-06-10T10:31:23;6.88;;;4.13;;
63005;SDS011;53704;52.532;6.426;2023-06-10T10:33:59;13.10;;;4.28;;
63005;SDS011;53704;52.532;6.426;2023-06-10T10:36:27;5.93;;;3.53;;
63005;SDS011;53704;52.532;6.426;2023-06-10T10:38:53;4.88;;;3.92;;
63005;SDS011;53704;52.532;6.426;2023-06-10T10:41:19;6.32;;;3.95;;
63005;SDS011;53704;52.532;6.426;2023-06-10T10:43:46;6.93;;;4.25;;
63005;SDS011;53704;52.532;6.426;2023-06-10T10:46:13;11.52;;;4.28;;
63005;SDS011;53704;52.532;6.426;2023-06-10T10:48:41;12.52;;;4.32;;
63005;SDS011;53704;52.532;6.426;2023-06-10T10:51:08;4.00;;;3.60;;
63005;SDS011;53704;52.532;6.426;2023-06-10T10:53:34;4.43;;;3.97;;
63005;SDS011;53704;52.532;6.426;2023-06-10T10:56:05;6.78;;;3.70;;
63005;SDS011;53704;52.532;6.426;2023-06-10T10:58:32;6.10;;;4.03;;
63005;SDS011;53704;52.532;6.426;2023-06-10T11:00:58;10.32;;;4.28;;
63005;SDS011;53704;52.532;6.426;2023-06-10T11:03:27;7.43;;;3.72;;
63005;SDS011;53704;52.532;6.426;2023-06-10T11:05:56;7.40;;;3.83;;
63005;SDS011;53704;52.532;6.426;2023-06-10T11:10:58;7.57;;;3.80;;
63005;SDS011;53704;52.532;6.426;2023-06-10T11:13:23;4.65;;;4.05;;
63005;SDS011;53704;52.532;6.426;2023-06-10T11:15:51;4.00;;;3.60;;
63005;SDS011;53704;52.532;6.426;2023-06-10T11:23:25;10.77;;;4.18;;
63005;SDS011;53704;52.532;6.426;2023-06-10T11:25:50;5.00;;;3.45;;
63005;SDS011;53704;52.532;6.426;2023-06-10T11:28:19;16.70;;;4.28;;
63005;SDS011;53704;52.532;6.426;2023-06-10T11:30:45;13.60;;;4.28;;
63005;SDS011;53704;52.532;6.426;2023-06-10T11:33:14;17.10;;;4.07;;
63005;SDS011;53704;52.532;6.426;2023-06-10T11:35:41;12.98;;;3.88;;
63005;SDS011;53704;52.532;6.426;2023-06-10T11:38:07;7.88;;;3.40;;
63005;SDS011;53704;52.532;6.426;2023-06-10T11:40:33;9.20;;;3.55;;
63005;SDS011;53704;52.532;6.426;2023-06-10T11:43:00;7.95;;;3.88;;
63005;SDS011;53704;52.532;6.426;2023-06-10T11:45:26;11.30;;;4.00;;
63005;SDS011;53704;52.532;6.426;2023-06-10T11:47:55;4.53;;;4.07;;
63005;SDS011;53704;52.532;6.426;2023-06-10T11:50:31;6.47;;;4.27;;
63005;SDS011;53704;52.532;6.426;2023-06-10T11:52:57;11.27;;;4.63;;
63005;SDS011;53704;52.532;6.426;2023-06-10T11:55:24;9.18;;;4.00;;
63005;SDS011;53704;52.532;6.426;2023-06-10T11:57:51;9.02;;;4.60;;
63005;SDS011;53704;52.532;6.426;2023-06-10T12:00:22;7.57;;;4.28;;
63005;SDS011;53704;52.532;6.426;2023-06-10T12:02:56;4.05;;;3.75;;
63005;SDS011;53704;52.532;6.426;2023-06-10T12:05:22;10.85;;;4.45;;
63005;SDS011;53704;52.532;6.426;2023-06-10T12:07:48;14.57;;;4.63;;
63005;SDS011;53704;52.532;6.426;2023-06-10T12:10:13;8.32;;;4.03;;
63005;SDS011;53704;52.532;6.426;2023-06-10T12:12:39;8.65;;;4.75;;
63005;SDS011;53704;52.532;6.426;2023-06-10T12:15:06;14.80;;;4.50;;
63005;SDS011;53704;52.532;6.426;2023-06-10T12:19:58;9.95;;;4.15;;
63005;SDS011;53704;52.532;6.426;2023-06-10T12:22:24;6.43;;;4.40;;
63005;SDS011;53704;52.532;6.426;2023-06-10T12:25:04;13.10;;;4.15;;
63005;SDS011;53704;52.532;6.426;2023-06-10T12:27:32;4.38;;;4.18;;
63005;SDS011;53704;52.532;6.426;2023-06-10T12:29:59;5.20;;;4.38;;
63005;SDS011;53704;52.532;6.426;2023-06-10T12:32:43;6.57;;;3.85;;
63005;SDS011;53704;52.532;6.426;2023-06-10T12:35:10;4.10;;;3.72;;
63005;SDS011;53704;52.532;6.426;2023-06-10T12:38:03;8.30;;;3.97;;
63005;SDS011;53704;52.532;6.426;2023-06-10T12:40:36;4.22;;;3.78;;
63005;SDS011;53704;52.532;6.426;2023-06-10T12:43:05;8.77;;;3.92;;
63005;SDS011;53704;52.532;6.426;2023-06-10T12:45:34;3.58;;;3.38;;
63005;SDS011;53704;52.532;6.426;2023-06-10T12:48:04;5.70;;;3.85;;
63005;SDS011;53704;52.532;6.426;2023-06-10T12:50:31;8.68;;;3.97;;
63005;SDS011;53704;52.532;6.426;2023-06-10T12:52:57;4.70;;;4.18;;
63005;SDS011;53704;52.532;6.426;2023-06-10T12:55:22;6.95;;;3.60;;
63005;SDS011;53704;52.532;6.426;2023-06-10T12:57:48;4.72;;;4.07;;
63005;SDS011;53704;52.532;6.426;2023-06-10T13:00:15;9.35;;;4.50;;
63005;SDS011;53704;52.532;6.426;2023-06-10T13:02:41;3.90;;;3.60;;
63005;SDS011;53704;52.532;6.426;2023-06-10T13:05:06;4.93;;;3.50;;
63005;SDS011;53704;52.532;6.426;2023-06-10T13:07:32;6.60;;;3.28;;
63005;SDS011;53704;52.532;6.426;2023-06-10T13:09:58;6.25;;;3.78;;
63005;SDS011;53704;52.532;6.426;2023-06-10T13:12:25;7.55;;;3.88;;
63005;SDS011;53704;52.532;6.426;2023-06-10T13:14:54;10.55;;;3.80;;
63005;SDS011;53704;52.532;6.426;2023-06-10T13:17:20;5.95;;;3.72;;
63005;SDS011;53704;52.532;6.426;2023-06-10T13:19:46;4.38;;;3.30;;
63005;SDS011;53704;52.532;6.426;2023-06-10T13:22:11;9.20;;;3.58;;
63005;SDS011;53704;52.532;6.426;2023-06-10T13:24:39;6.55;;;3.03;;
63005;SDS011;53704;52.532;6.426;2023-06-10T13:27:05;8.27;;;3.55;;
63005;SDS011;53704;52.532;6.426;2023-06-10T13:29:31;6.75;;;3.47;;
63005;SDS011;53704;52.532;6.426;2023-06-10T13:31:57;6.70;;;3.10;;
63005;SDS011;53704;52.532;6.426;2023-06-10T13:34:22;4.70;;;3.63;;
63005;SDS011;53704;52.532;6.426;2023-06-10T13:36:48;3.20;;;2.97;;
63005;SDS011;53704;52.532;6.426;2023-06-10T13:39:13;6.78;;;3.78;;
63005;SDS011;53704;52.532;6.426;2023-06-10T13:41:40;6.07;;;3.45;;
63005;SDS011;53704;52.532;6.426;2023-06-10T13:44:06;7.63;;;3.50;;
63005;SDS011;53704;52.532;6.426;2023-06-10T13:46:32;4.63;;;3.10;;
63005;SDS011;53704;52.532;6.426;2023-06-10T13:48:57;6.78;;;3.17;;
63005;SDS011;53704;52.532;6.426;2023-06-10T13:51:23;3.15;;;2.72;;
63005;SDS011;53704;52.532;6.426;2023-06-10T13:53:48;3.42;;;3.17;;
63005;SDS011;53704;52.532;6.426;2023-06-10T13:56:15;7.50;;;2.83;;
63005;SDS011;53704;52.532;6.426;2023-06-10T13:58:41;24.38;;;4.20;;
63005;SDS011;53704;52.532;6.426;2023-06-10T14:01:08;3.65;;;3.35;;
63005;SDS011;53704;52.532;6.426;2023-06-10T14:03:33;10.88;;;3.58;;
63005;SDS011;53704;52.532;6.426;2023-06-10T14:05:59;4.70;;;3.55;;
63005;SDS011;53704;52.532;6.426;2023-06-10T14:08:24;3.38;;;3.08;;
63005;SDS011;53704;52.532;6.426;2023-06-10T14:10:50;7.25;;;3.30;;
63005;SDS011;53704;52.532;6.426;2023-06-10T14:13:18;4.72;;;2.97;;
63005;SDS011;53704;52.532;6.426;2023-06-10T14:15:44;6.85;;;2.88;;
63005;SDS011;53704;52.532;6.426;2023-06-10T14:18:10;4.85;;;3.42;;
63005;SDS011;53704;52.532;6.426;2023-06-10T14:20:35;3.47;;;3.17;;
63005;SDS011;53704;52.532;6.426;2023-06-10T14:23:01;4.75;;;3.10;;
63005;SDS011;53704;52.532;6.426;2023-06-10T14:25:26;3.90;;;3.08;;
63005;SDS011;53704;52.532;6.426;2023-06-10T14:27:52;5.88;;;3.13;;
63005;SDS011;53704;52.532;6.426;2023-06-10T14:30:17;5.93;;;3.03;;
63005;SDS011;53704;52.532;6.426;2023-06-10T14:32:43;6.85;;;3.28;;
63005;SDS011;53704;52.532;6.426;2023-06-10T14:35:08;5.57;;;3.20;;
63005;SDS011;53704;52.532;6.426;2023-06-10T14:37:34;3.65;;;2.88;;
63005;SDS011;53704;52.532;6.426;2023-06-10T14:40:00;4.45;;;3.20;;
63005;SDS011;53704;52.532;6.426;2023-06-10T14:42:26;3.08;;;2.88;;
63005;SDS011;53704;52.532;6.426;2023-06-10T14:44:51;4.38;;;3.70;;
63005;SDS011;53704;52.532;6.426;2023-06-10T14:47:17;4.25;;;3.85;;
63005;SDS011;53704;52.532;6.426;2023-06-10T14:49:45;3.80;;;3.60;;
63005;SDS011;53704;52.532;6.426;2023-06-10T14:52:11;3.97;;;3.20;;
63005;SDS011;53704;52.532;6.426;2023-06-10T14:54:36;3.75;;;3.45;;